Now boarding.
Please wait.

menu

our worldwide Hubs

Our Hubs

GlobalOne creates a global network with its airline members connecting the globe. Our hubs are strategically placed to form a network of maximum connectivity and enabling our pilots to fly any part of the world. Spanning all the way from Europe to Asia & South America, GlobalOne has the most comprehensive Virtual Airline network, distinguishing us from the rest.

EBBR Brussels International Airport

Airport Information METAR Runway Information

Current Weather:

EBBR 170020Z 25005KT CAVOK 16/14 Q1021 NOSIG

Runway Facts:

Direction Length m Length ft Elevation m Elevation ft Surface
01/19 2,987 9,800 56 m 184 ft Asphalt
07R/25L 3,211 10,535 56 m 184 ft Asphalt
07L/25R 3,638 11,936 56 m 184 ft Asphalt

LEBL Barcelona El-Prat

Airport Information METAR Runway Information

Current Weather:

LEBL 170030Z 33008KT 9999 FEW018 BKN042 18/15 Q1025 NOSIG

Runway Facts:

Direction Length m Length ft Elevation m Elevation ft Surface
07L/25R 3,743 12,281 4 m 14 ft Asphalt concrete
07R/25L 2,660 8,727 4 m 14 ft Asphalt concrete
02/20 2,528 8,293 4 m 14 ft Asphalt concrete

SVMI Caracas Simón Bolívar International Airport

Airport Information METAR Runway Information

Current Weather:

SVMI 162300Z 02002KT 9999 SCT016 29/26 Q1008

Runway Facts:

Direction Length m Length ft Elevation m Elevation ft Surface
10/28 3,610 11,483 72 m 235 ft Asphalt
09/27 3,270 9,930 72 m 235 ft Asphalt

OMDB Dubai International Airport

Airport Information METAR Runway Information

Current Weather:

OMDB 170000Z 14004KT CAVOK 28/23 Q1008 NOSIG

Runway Facts:

Direction Length m Length ft Elevation m Elevation ft Surface
12L/30R 4,000 13,123 19 m 62 ft Asphalt
12R/30L 4,450 14,600 19 m 62 ft Asphalt

WMKK Kuala Lumpur International Airport

Airport Information METAR Runway Information

Current Weather:

WMKK 170030Z 13005KT 110V170 9999 FEW018 BKN280 28/23 Q1010 NOSIG

Runway Facts:

Direction Length m Length ft Elevation m Elevation ft Surface
14L/32R 4,124 13,530 21 m 70 ft Concrete
14R/32L 4,056 13,307 21 m 70 ft Concrete
15/33 4,056 13,307 21 m 70 ft Concrete

KLAS Las Vegas McCarran Int.

Airport Information METAR Runway Information

Current Weather:

KLAS 162356Z 00000KT 10SM BKN250 28/M12 A3014 RMK AO2 SLP189 T02781122 10289 20222 56015

Runway Facts:

Direction Length m Length ft Elevation m Elevation ft Surface
01L/19R 2,740 8,988 665 m 2,181 ft Concrete
01R/19L 2,978 9,771 665 m 2,181 ft Concrete
07L/25R 4,423 14,512 665 m 2,181 ft Concrete
07R/25L 3,208 10,525 665 m 2,181 ft Concrete

LEMD Madrid Barajas

Airport Information METAR Runway Information

Current Weather:

LEMD 170030Z 33003KT CAVOK 13/07 Q1024 NOSIG

Runway Facts:

Direction Length m Length ft Elevation m Elevation ft Surface
14R/32L 4,100 13,451 610 m 2,000 ft Asphalt
18L/36R 3,500 11,482 610 m 2,000 ft Asphalt
14L/32R 3,500 11,482 610 m 2,000 ft Asphalt
18R/36L 4,350 14,268 610 m 2,000 ft Asphalt/Concrete

LEMG Malaga

Airport Information METAR Runway Information

Current Weather:

LEMG 170030Z 29004KT 9999 SCT020 BKN035 18/15 Q1024 NOSIG

Runway Facts:

Direction Length m Length ft Elevation m Elevation ft Surface
13/31 3,200 10,500 16 m 52 ft Asphalt
12/30 2,750 9,022 16 m 52 ft Asphalt

OJAI Queen Alia International Airport

Airport Information METAR Runway Information

Current Weather:

OJAI 170000Z 00000KT CAVOK 12/07 Q1018 NOSIG

Runway Facts:

Direction Length m Length ft Elevation m Elevation ft Surface
08R/26L 3,660 12,008 730 m 2,395 ft Concrete
08L/26R 3,660 12,008 730 m 2,395 ft Asphalt

KSAN San Diego Int.

Airport Information METAR Runway Information

Current Weather:

KSAN 162351Z 32011KT 10SM FEW250 30/05 A2996 RMK AO2 SLP145 T03000050 10317 20278 56012

Runway Facts:

Direction Length m Length ft Elevation m Elevation ft Surface
09/27 2,865 9,401 5 m 17 ft Asphalt/Concrete

ESSA Stockholm-Arlanda Airport

Airport Information METAR Runway Information

Current Weather:

ESSA 170020Z VRB01KT 9999 SCT047 BKN098 08/06 Q1015 NOSIG

Runway Facts:

Direction Length m Length ft Elevation m Elevation ft Surface
01L/19R 3,301 10,830 42 m 137 ft Asphalt
01R/19L 2,500 8,202 42 m 137 ft Asphalt
08/26 2,500 8,202 42 m 137 ft Asphalt